Wetterdaten: Woche 14.07.25 - 20.07.25 (KW29)
Datum Zeit Temp. I. Temp. A. Feuchte I. Feuchte A. Luftdruck Regen Wind Richtung Sonnenschein Solar Taupunkt Windchill Windböen
14.07.2025 00:00 22,1 °C 16,1 °C 53 % 92 % 1011,6 hPa 0,0 l/m² 0,1 km/h (0 Bft) S-SW 0,00 h 0 W/m² 14,9 °C 16,1 °C 0,4 km/h (0 Bft)
14.07.2025 01:00 22,1 °C 15,5 °C 53 % 94 % 1011,7 hPa 0,0 l/m² 0,0 km/h (0 Bft) S-SW 0,00 h 0 W/m² 14,4 °C 15,5 °C 0,0 km/h (0 Bft)
14.07.2025 02:00 22,1 °C 14,9 °C 53 % 94 % 1011,6 hPa 0,0 l/m² 0,2 km/h (0 Bft) S-SW 0,00 h 0 W/m² 13,9 °C 14,9 °C 0,3 km/h (0 Bft)
14.07.2025 03:00 22,1 °C 14,5 °C 53 % 95 % 1011,6 hPa 0,0 l/m² 0,0 km/h (0 Bft) S-SW 0,00 h 0 W/m² 13,6 °C 14,5 °C 0,0 km/h (0 Bft)
14.07.2025 04:00 22,1 °C 14,7 °C 53 % 95 % 1011,4 hPa 0,0 l/m² 0,0 km/h (0 Bft) S-SW 0,00 h 0 W/m² 13,9 °C 14,7 °C 0,0 km/h (0 Bft)
14.07.2025 05:00 22,0 °C 14,9 °C 53 % 95 % 1011,5 hPa 0,0 l/m² 0,0 km/h (0 Bft) S-SW 0,00 h 18 W/m² 14,1 °C 14,9 °C 0,0 km/h (0 Bft)
14.07.2025 06:00 22,0 °C 15,8 °C 53 % 95 % 1011,9 hPa 0,0 l/m² 0,0 km/h (0 Bft) S-SW 0,33 h 69 W/m² 15,0 °C 15,8 °C 0,0 km/h (0 Bft)
14.07.2025 07:00 22,0 °C 18,1 °C 53 % 92 % 1012,1 hPa 0,0 l/m² 3,7 km/h (1 Bft) S-SW 1,00 h 205 W/m² 16,7 °C 18,1 °C 5,5 km/h (2 Bft)
14.07.2025 08:00 22,1 °C 21,5 °C 53 % 78 % 1012,4 hPa 0,0 l/m² 5,1 km/h (1 Bft) S-SW 1,00 h 340 W/m² 17,4 °C 21,4 °C 7,8 km/h (2 Bft)
14.07.2025 09:00 22,2 °C 25,1 °C 53 % 62 % 1012,5 hPa 0,0 l/m² 12,3 km/h (2 Bft) W-SW 1,00 h 576 W/m² 17,3 °C 24,0 °C 18,3 km/h (3 Bft)
14.07.2025 10:00 22,2 °C 27,2 °C 53 % 54 % 1012,6 hPa 0,0 l/m² 13,1 km/h (3 Bft) W-SW 1,00 h 758 W/m² 16,9 °C 26,2 °C 19,7 km/h (3 Bft)
14.07.2025 11:00 22,2 °C 28,3 °C 53 % 48 % 1012,7 hPa 0,0 l/m² 16,5 km/h (3 Bft) SW 1,00 h 775 W/m² 16,1 °C 27,2 °C 22,9 km/h (4 Bft)
14.07.2025 12:00 22,2 °C 28,2 °C 53 % 45 % 1012,9 hPa 0,0 l/m² 13,8 km/h (3 Bft) SW 1,00 h 502 W/m² 15,0 °C 27,3 °C 20,5 km/h (4 Bft)
14.07.2025 13:00 22,2 °C 28,8 °C 53 % 45 % 1012,7 hPa 0,0 l/m² 13,1 km/h (3 Bft) W-SW 1,00 h 533 W/m² 15,6 °C 28,2 °C 19,2 km/h (3 Bft)
14.07.2025 14:00 22,2 °C 29,5 °C 53 % 40 % 1012,4 hPa 0,0 l/m² 17,6 km/h (3 Bft) SW 1,00 h 485 W/m² 14,3 °C 28,7 °C 24,7 km/h (4 Bft)
14.07.2025 15:00 22,3 °C 29,6 °C 53 % 43 % 1012,5 hPa 0,0 l/m² 24,9 km/h (4 Bft) SW 1,00 h 659 W/m² 15,5 °C 28,4 °C 32,9 km/h (5 Bft)
14.07.2025 16:00 22,3 °C 29,2 °C 53 % 44 % 1012,5 hPa 0,0 l/m² 21,5 km/h (4 Bft) SW 1,00 h 586 W/m² 15,6 °C 28,0 °C 29,3 km/h (5 Bft)
14.07.2025 17:00 22,3 °C 28,2 °C 53 % 46 % 1012,7 hPa 0,0 l/m² 19,1 km/h (3 Bft) SW 1,00 h 334 W/m² 15,4 °C 26,8 °C 25,8 km/h (4 Bft)
14.07.2025 18:00 22,3 °C 27,0 °C 54 % 48 % 1012,8 hPa 0,0 l/m² 16,2 km/h (3 Bft) SW 1,00 h 119 W/m² 15,1 °C 25,6 °C 22,3 km/h (4 Bft)
14.07.2025 19:00 22,3 °C 25,8 °C 54 % 54 % 1013,2 hPa 0,0 l/m² 8,7 km/h (2 Bft) W-SW 0,72 h 55 W/m² 15,7 °C 25,2 °C 12,9 km/h (3 Bft)
14.07.2025 20:00 22,3 °C 25,0 °C 54 % 59 % 1013,4 hPa 0,0 l/m² 9,3 km/h (2 Bft) SW 0,10 h 36 W/m² 16,3 °C 24,3 °C 13,7 km/h (3 Bft)
14.07.2025 21:00 22,3 °C 23,1 °C 54 % 66 % 1014,1 hPa 0,0 l/m² 8,7 km/h (2 Bft) SW 0,00 h 7 W/m² 16,4 °C 22,5 °C 12,5 km/h (2 Bft)
14.07.2025 22:00 22,3 °C 22,0 °C 54 % 69 % 1014,6 hPa 0,0 l/m² 7,4 km/h (2 Bft) W-SW 0,00 h 0 W/m² 16,1 °C 21,5 °C 11,8 km/h (2 Bft)
14.07.2025 23:00 22,3 °C 21,5 °C 54 % 71 % 1014,9 hPa 0,0 l/m² 9,6 km/h (2 Bft) W-SW 0,00 h 0 W/m² 16,1 °C 20,4 °C 14,2 km/h (3 Bft)
15.07.2025 00:00 22,3 °C 20,8 °C 54 % 76 % 1015,4 hPa 0,0 l/m² 2,2 km/h (1 Bft) W-NW 0,00 h 0 W/m² 16,4 °C 20,8 °C 4,4 km/h (1 Bft)
15.07.2025 01:00 22,4 °C 19,9 °C 54 % 80 % 1015,6 hPa 0,0 l/m² 3,8 km/h (1 Bft) S 0,00 h 0 W/m² 16,5 °C 19,8 °C 5,6 km/h (2 Bft)
15.07.2025 02:00 22,4 °C 19,4 °C 54 % 84 % 1015,9 hPa 0,0 l/m² 5,2 km/h (1 Bft) SW 0,00 h 0 W/m² 16,7 °C 19,4 °C 6,8 km/h (2 Bft)
15.07.2025 03:00 22,4 °C 19,1 °C 54 % 86 % 1015,7 hPa 0,0 l/m² 2,0 km/h (1 Bft) SW 0,00 h 0 W/m² 16,7 °C 19,1 °C 3,4 km/h (1 Bft)
15.07.2025 04:00 22,4 °C 18,2 °C 54 % 88 % 1015,8 hPa 0,0 l/m² 2,9 km/h (1 Bft) SW 0,00 h 0 W/m² 16,2 °C 18,2 °C 4,0 km/h (1 Bft)
15.07.2025 05:00 22,4 °C 17,2 °C 54 % 90 % 1015,9 hPa 0,0 l/m² 2,1 km/h (1 Bft) SW 0,00 h 16 W/m² 15,6 °C 17,2 °C 3,4 km/h (1 Bft)
15.07.2025 06:00 22,4 °C 17,2 °C 54 % 91 % 1015,8 hPa 0,0 l/m² 0,4 km/h (0 Bft) SW 0,53 h 63 W/m² 15,7 °C 17,2 °C 1,0 km/h (0 Bft)
15.07.2025 07:00 22,4 °C 19,1 °C 54 % 88 % 1015,8 hPa 0,0 l/m² 1,5 km/h (1 Bft) SW 1,00 h 112 W/m² 17,0 °C 19,1 °C 2,5 km/h (1 Bft)
15.07.2025 08:00 22,4 °C 20,0 °C 54 % 84 % 1015,6 hPa 0,0 l/m² 3,5 km/h (1 Bft) SW 1,00 h 109 W/m² 17,3 °C 20,0 °C 4,9 km/h (1 Bft)
15.07.2025 09:00 22,4 °C 20,3 °C 54 % 83 % 1015,5 hPa 1,0 l/m² 4,4 km/h (1 Bft) SW 0,57 h 67 W/m² 17,4 °C 20,2 °C 6,3 km/h (2 Bft)
15.07.2025 10:00 22,4 °C 18,0 °C 54 % 91 % 1015,8 hPa 7,0 l/m² 5,8 km/h (2 Bft) NW 0,83 h 117 W/m² 16,6 °C 17,5 °C 9,6 km/h (2 Bft)
15.07.2025 11:00 22,4 °C 17,1 °C 54 % 92 % 1016,0 hPa 6,4 l/m² 5,8 km/h (2 Bft) W 0,40 h 62 W/m² 15,8 °C 16,6 °C 9,4 km/h (2 Bft)
15.07.2025 12:00 22,4 °C 17,2 °C 54 % 93 % 1016,3 hPa 0,2 l/m² 6,2 km/h (2 Bft) W-NW 1,00 h 196 W/m² 16,0 °C 16,8 °C 12,9 km/h (3 Bft)
15.07.2025 13:00 22,3 °C 17,4 °C 54 % 90 % 1016,5 hPa 0,0 l/m² 8,4 km/h (2 Bft) W-NW 0,93 h 357 W/m² 15,8 °C 16,3 °C 15,9 km/h (3 Bft)
15.07.2025 14:00 22,3 °C 19,9 °C 54 % 80 % 1016,2 hPa 0,0 l/m² 4,9 km/h (1 Bft) W-NW 1,00 h 680 W/m² 16,4 °C 19,8 °C 9,7 km/h (2 Bft)
15.07.2025 15:00 22,3 °C 21,2 °C 54 % 74 % 1015,9 hPa 0,0 l/m² 7,3 km/h (2 Bft) W-NW 1,00 h 472 W/m² 16,4 °C 20,7 °C 13,5 km/h (3 Bft)
15.07.2025 16:00 22,3 °C 19,9 °C 54 % 77 % 1015,9 hPa 0,6 l/m² 4,5 km/h (1 Bft) NW 1,00 h 285 W/m² 15,8 °C 19,8 °C 8,3 km/h (2 Bft)
15.07.2025 17:00 22,4 °C 21,0 °C 54 % 74 % 1015,3 hPa 0,0 l/m² 2,3 km/h (1 Bft) W-SW 0,98 h 437 W/m² 16,3 °C 21,0 °C 4,1 km/h (1 Bft)
15.07.2025 18:00 22,4 °C 22,0 °C 54 % 71 % 1014,9 hPa 0,0 l/m² 2,4 km/h (1 Bft) W-SW 1,02 h 108 W/m² 16,3 °C 22,0 °C 4,5 km/h (1 Bft)
15.07.2025 19:00 22,4 °C 21,8 °C 54 % 64 % 1015,2 hPa 0,0 l/m² 9,7 km/h (2 Bft) SW 0,80 h 76 W/m² 14,7 °C 20,6 °C 17,6 km/h (3 Bft)
15.07.2025 20:00 22,4 °C 19,8 °C 54 % 65 % 1015,5 hPa 0,0 l/m² 8,2 km/h (2 Bft) NW 0,00 h 24 W/m² 13,0 °C 19,0 °C 16,2 km/h (3 Bft)
15.07.2025 21:00 22,4 °C 17,2 °C 54 % 74 % 1016,2 hPa 0,0 l/m² 4,7 km/h (1 Bft) W-NW 0,00 h 7 W/m² 12,5 °C 17,2 °C 9,4 km/h (2 Bft)
15.07.2025 22:00 22,4 °C 16,1 °C 54 % 80 % 1016,5 hPa 0,0 l/m² 2,4 km/h (1 Bft) W 0,00 h 0 W/m² 12,7 °C 16,1 °C 5,1 km/h (1 Bft)
15.07.2025 23:00 22,4 °C 14,7 °C 54 % 85 % 1016,5 hPa 0,0 l/m² 1,0 km/h (0 Bft) W 0,00 h 0 W/m² 12,2 °C 14,7 °C 1,8 km/h (1 Bft)
16.07.2025 00:00 22,4 °C 13,2 °C 54 % 88 % 1016,5 hPa 0,0 l/m² 0,7 km/h (0 Bft) W 0,00 h 0 W/m² 11,3 °C 13,2 °C 1,6 km/h (1 Bft)
16.07.2025 01:00 22,4 °C 12,3 °C 54 % 91 % 1016,4 hPa 0,0 l/m² 0,6 km/h (0 Bft) W 0,00 h 0 W/m² 10,9 °C 12,3 °C 1,2 km/h (1 Bft)
16.07.2025 02:00 22,3 °C 12,2 °C 54 % 91 % 1016,1 hPa 0,0 l/m² 1,0 km/h (0 Bft) W 0,00 h 0 W/m² 10,8 °C 12,2 °C 2,1 km/h (1 Bft)
16.07.2025 03:00 22,3 °C 11,7 °C 54 % 91 % 1015,7 hPa 0,0 l/m² 0,2 km/h (0 Bft) S-SW 0,00 h 0 W/m² 10,3 °C 11,7 °C 0,4 km/h (0 Bft)
16.07.2025 04:00 22,3 °C 11,2 °C 54 % 92 % 1015,2 hPa 0,0 l/m² 0,5 km/h (0 Bft) S-SW 0,00 h 0 W/m² 9,9 °C 11,2 °C 1,0 km/h (0 Bft)
16.07.2025 05:00 22,3 °C 11,4 °C 54 % 93 % 1014,7 hPa 0,0 l/m² 1,8 km/h (1 Bft) S-SW 0,00 h 11 W/m² 10,3 °C 11,4 °C 2,7 km/h (1 Bft)
16.07.2025 06:00 22,2 °C 12,1 °C 54 % 93 % 1014,3 hPa 0,0 l/m² 0,1 km/h (0 Bft) S 0,25 h 41 W/m² 11,0 °C 12,1 °C 0,3 km/h (0 Bft)
16.07.2025 07:00 22,2 °C 14,2 °C 54 % 90 % 1014,1 hPa 0,0 l/m² 0,0 km/h (0 Bft) S 1,00 h 183 W/m² 12,6 °C 14,2 °C 0,0 km/h (0 Bft)
16.07.2025 08:00 22,2 °C 17,3 °C 54 % 78 % 1013,7 hPa 0,0 l/m² 5,6 km/h (2 Bft) S 1,00 h 215 W/m² 13,5 °C 16,8 °C 7,8 km/h (2 Bft)
16.07.2025 09:00 22,1 °C 18,6 °C 54 % 74 % 1013,3 hPa 0,0 l/m² 1,3 km/h (1 Bft) SW 1,00 h 210 W/m² 13,9 °C 18,6 °C 2,4 km/h (1 Bft)
16.07.2025 10:00 22,1 °C 20,6 °C 54 % 62 % 1013,1 hPa 0,0 l/m² 16,3 km/h (3 Bft) SW 1,00 h 346 W/m² 12,9 °C 17,8 °C 22,4 km/h (4 Bft)
16.07.2025 11:00 22,1 °C 20,6 °C 54 % 61 % 1013,0 hPa 0,0 l/m² 18,9 km/h (3 Bft) SW 1,00 h 457 W/m² 12,7 °C 17,3 °C 26,1 km/h (4 Bft)
16.07.2025 12:00 22,1 °C 22,0 °C 54 % 54 % 1012,6 hPa 0,0 l/m² 19,6 km/h (3 Bft) S-SW 1,00 h 699 W/m² 12,2 °C 18,9 °C 27,0 km/h (5 Bft)
16.07.2025 13:00 22,1 °C 22,2 °C 54 % 55 % 1012,1 hPa 0,0 l/m² 20,1 km/h (4 Bft) S-SW 1,00 h 694 W/m² 12,7 °C 19,0 °C 26,8 km/h (4 Bft)
16.07.2025 14:00 22,1 °C 20,5 °C 54 % 66 % 1011,5 hPa 0,0 l/m² 15,8 km/h (3 Bft) SW 1,00 h 451 W/m² 13,9 °C 17,7 °C 21,9 km/h (4 Bft)
16.07.2025 15:00 22,1 °C 20,3 °C 54 % 67 % 1011,1 hPa 0,0 l/m² 12,8 km/h (3 Bft) W-SW 1,00 h 440 W/m² 14,1 °C 18,3 °C 19,5 km/h (3 Bft)
16.07.2025 16:00 22,1 °C 22,2 °C 54 % 60 % 1010,7 hPa 0,0 l/m² 15,8 km/h (3 Bft) W-SW 1,00 h 631 W/m² 14,0 °C 19,8 °C 23,6 km/h (4 Bft)
16.07.2025 17:00 22,1 °C 22,1 °C 54 % 59 % 1010,3 hPa 0,0 l/m² 20,0 km/h (4 Bft) W-SW 1,00 h 414 W/m² 13,8 °C 19,0 °C 27,6 km/h (5 Bft)
16.07.2025 18:00 22,1 °C 19,6 °C 54 % 67 % 1010,3 hPa 0,0 l/m² 12,2 km/h (2 Bft) W-NW 1,00 h 93 W/m² 13,2 °C 17,7 °C 21,3 km/h (4 Bft)
16.07.2025 19:00 22,1 °C 18,7 °C 54 % 73 % 1010,5 hPa 0,0 l/m² 5,7 km/h (2 Bft) W-NW 1,00 h 119 W/m² 13,7 °C 18,5 °C 10,6 km/h (2 Bft)
16.07.2025 20:00 22,1 °C 18,3 °C 54 % 70 % 1010,7 hPa 0,0 l/m² 4,4 km/h (1 Bft) W 0,07 h 32 W/m² 12,7 °C 18,2 °C 8,7 km/h (2 Bft)
16.07.2025 21:00 22,1 °C 16,6 °C 54 % 78 % 1011,3 hPa 0,0 l/m² 2,0 km/h (1 Bft) W 0,00 h 7 W/m² 12,8 °C 16,6 °C 4,0 km/h (1 Bft)
16.07.2025 22:00 22,1 °C 15,2 °C 54 % 83 % 1011,8 hPa 0,0 l/m² 0,9 km/h (0 Bft) W 0,00 h 0 W/m² 12,3 °C 15,2 °C 2,3 km/h (1 Bft)
16.07.2025 23:00 22,1 °C 15,2 °C 54 % 85 % 1012,2 hPa 0,0 l/m² 2,4 km/h (1 Bft) W 0,00 h 0 W/m² 12,8 °C 15,2 °C 3,9 km/h (1 Bft)
17.07.2025 00:00 22,1 °C 15,4 °C 54 % 87 % 1012,7 hPa 0,0 l/m² 3,5 km/h (1 Bft) W 0,00 h 0 W/m² 13,2 °C 15,4 °C 6,0 km/h (2 Bft)
17.07.2025 01:00 22,1 °C 15,8 °C 54 % 86 % 1012,8 hPa 0,0 l/m² 2,0 km/h (1 Bft) W 0,00 h 0 W/m² 13,4 °C 15,8 °C 4,9 km/h (1 Bft)
17.07.2025 02:00 22,1 °C 15,0 °C 54 % 88 % 1012,8 hPa 0,0 l/m² 2,2 km/h (1 Bft) W 0,00 h 0 W/m² 13,1 °C 15,0 °C 4,1 km/h (1 Bft)
17.07.2025 03:00 22,1 °C 13,7 °C 54 % 92 % 1012,9 hPa 0,0 l/m² 3,2 km/h (1 Bft) W-SW 0,00 h 0 W/m² 12,3 °C 13,7 °C 4,6 km/h (1 Bft)
17.07.2025 04:00 22,1 °C 13,0 °C 54 % 92 % 1013,1 hPa 0,0 l/m² 1,3 km/h (1 Bft) W-SW 0,00 h 0 W/m² 11,8 °C 13,0 °C 2,6 km/h (1 Bft)
17.07.2025 05:00 22,0 °C 12,6 °C 54 % 93 % 1013,3 hPa 0,0 l/m² 1,2 km/h (1 Bft) W-SW 0,00 h 12 W/m² 11,5 °C 12,6 °C 2,4 km/h (1 Bft)
17.07.2025 06:00 21,9 °C 13,9 °C 54 % 94 % 1013,6 hPa 0,0 l/m² 2,8 km/h (1 Bft) W-SW 0,70 h 80 W/m² 12,9 °C 13,9 °C 5,2 km/h (1 Bft)
17.07.2025 07:00 21,9 °C 16,2 °C 54 % 87 % 1014,0 hPa 0,0 l/m² 5,9 km/h (2 Bft) W-NW 1,00 h 186 W/m² 14,1 °C 15,9 °C 12,0 km/h (2 Bft)
17.07.2025 08:00 22,0 °C 18,0 °C 54 % 78 % 1014,4 hPa 0,0 l/m² 9,6 km/h (2 Bft) W 0,98 h 301 W/m² 14,1 °C 16,7 °C 18,0 km/h (3 Bft)
17.07.2025 09:00 22,1 °C 19,5 °C 54 % 71 % 1014,5 hPa 0,0 l/m² 11,3 km/h (2 Bft) W-SW 1,02 h 395 W/m² 14,0 °C 17,7 °C 20,1 km/h (4 Bft)
17.07.2025 10:00 22,1 °C 21,1 °C 54 % 63 % 1014,3 hPa 0,0 l/m² 10,5 km/h (2 Bft) W 1,00 h 561 W/m² 13,6 °C 19,7 °C 18,0 km/h (3 Bft)
17.07.2025 11:00 22,1 °C 21,8 °C 54 % 60 % 1014,3 hPa 0,0 l/m² 14,1 km/h (3 Bft) SW 1,00 h 521 W/m² 13,8 °C 19,8 °C 21,0 km/h (4 Bft)
17.07.2025 12:00 22,0 °C 20,8 °C 54 % 63 % 1014,4 hPa 0,0 l/m² 12,9 km/h (3 Bft) W-SW 0,98 h 199 W/m² 13,5 °C 18,8 °C 20,0 km/h (4 Bft)
17.07.2025 13:00 22,0 °C 20,7 °C 54 % 66 % 1014,2 hPa 0,0 l/m² 14,4 km/h (3 Bft) W-SW 1,02 h 226 W/m² 14,1 °C 18,3 °C 20,9 km/h (4 Bft)
17.07.2025 14:00 22,0 °C 19,0 °C 54 % 78 % 1014,0 hPa 0,0 l/m² 10,7 km/h (2 Bft) W-SW 1,00 h 119 W/m² 15,0 °C 17,4 °C 17,1 km/h (3 Bft)
17.07.2025 15:00 22,0 °C 18,0 °C 54 % 86 % 1014,0 hPa 1,4 l/m² 10,5 km/h (2 Bft) W-SW 1,00 h 167 W/m² 15,7 °C 16,3 °C 16,5 km/h (3 Bft)
17.07.2025 16:00 21,9 °C 16,8 °C 54 % 92 % 1013,8 hPa 1,6 l/m² 12,6 km/h (2 Bft) SW 1,00 h 93 W/m² 15,5 °C 14,3 °C 18,0 km/h (3 Bft)
17.07.2025 17:00 21,9 °C 16,8 °C 54 % 93 % 1013,3 hPa 0,8 l/m² 13,1 km/h (3 Bft) SW 0,72 h 64 W/m² 15,7 °C 14,0 °C 19,1 km/h (3 Bft)
17.07.2025 18:00 21,9 °C 16,9 °C 54 % 94 % 1013,1 hPa 0,2 l/m² 11,8 km/h (2 Bft) W-SW 0,00 h 32 W/m² 15,9 °C 14,6 °C 17,7 km/h (3 Bft)
17.07.2025 19:00 21,9 °C 17,1 °C 54 % 94 % 1013,0 hPa 1,4 l/m² 9,3 km/h (2 Bft) W-SW 0,07 h 25 W/m² 16,1 °C 15,8 °C 14,5 km/h (3 Bft)
17.07.2025 20:00 21,9 °C 16,9 °C 54 % 94 % 1013,1 hPa 0,6 l/m² 5,8 km/h (2 Bft) W-SW 0,00 h 7 W/m² 15,9 °C 16,6 °C 9,4 km/h (2 Bft)
17.07.2025 21:00 21,9 °C 17,0 °C 54 % 95 % 1013,1 hPa 1,0 l/m² 4,9 km/h (1 Bft) W-SW 0,00 h 0 W/m² 16,2 °C 16,8 °C 8,6 km/h (2 Bft)
17.07.2025 22:00 21,9 °C 17,4 °C 54 % 95 % 1013,1 hPa 0,0 l/m² 6,3 km/h (2 Bft) W 0,00 h 0 W/m² 16,6 °C 17,0 °C 12,2 km/h (2 Bft)
17.07.2025 23:00 21,8 °C 17,5 °C 54 % 95 % 1013,2 hPa 0,0 l/m² 4,7 km/h (1 Bft) W 0,00 h 0 W/m² 16,7 °C 17,4 °C 10,6 km/h (2 Bft)
18.07.2025 00:00 21,8 °C 17,5 °C 54 % 94 % 1013,2 hPa 0,0 l/m² 3,9 km/h (1 Bft) W 0,00 h 0 W/m² 16,6 °C 17,5 °C 10,6 km/h (2 Bft)
18.07.2025 01:00 21,8 °C 17,5 °C 54 % 94 % 1013,2 hPa 0,0 l/m² 2,7 km/h (1 Bft) W 0,00 h 0 W/m² 16,5 °C 17,5 °C 7,5 km/h (2 Bft)
18.07.2025 02:00 21,8 °C 17,4 °C 54 % 94 % 1013,2 hPa 0,0 l/m² 2,3 km/h (1 Bft) W 0,00 h 0 W/m² 16,4 °C 17,4 °C 6,8 km/h (2 Bft)
18.07.2025 03:00 21,8 °C 17,3 °C 54 % 95 % 1013,2 hPa 0,0 l/m² 2,7 km/h (1 Bft) W 0,00 h 0 W/m² 16,4 °C 17,3 °C 6,9 km/h (2 Bft)
18.07.2025 04:00 21,8 °C 17,2 °C 54 % 95 % 1013,2 hPa 0,2 l/m² 2,5 km/h (1 Bft) W-NW 0,00 h 0 W/m² 16,4 °C 17,2 °C 6,4 km/h (2 Bft)
18.07.2025 05:00 21,8 °C 17,2 °C 54 % 95 % 1013,4 hPa 0,0 l/m² 1,7 km/h (1 Bft) W 0,00 h 5 W/m² 16,4 °C 17,2 °C 4,9 km/h (1 Bft)
18.07.2025 06:00 21,7 °C 17,3 °C 54 % 95 % 1013,5 hPa 0,0 l/m² 0,9 km/h (0 Bft) W-NW 0,00 h 20 W/m² 16,5 °C 17,3 °C 3,4 km/h (1 Bft)
18.07.2025 07:00 21,7 °C 17,7 °C 54 % 95 % 1013,7 hPa 0,0 l/m² 1,5 km/h (1 Bft) W-NW 0,75 h 73 W/m² 16,9 °C 17,7 °C 4,4 km/h (1 Bft)
18.07.2025 08:00 21,7 °C 18,4 °C 54 % 92 % 1013,8 hPa 0,0 l/m² 4,1 km/h (1 Bft) NW 1,00 h 138 W/m² 17,1 °C 18,3 °C 7,3 km/h (2 Bft)
18.07.2025 09:00 21,7 °C 19,1 °C 54 % 88 % 1014,0 hPa 0,0 l/m² 5,6 km/h (2 Bft) W-NW 1,00 h 244 W/m² 17,0 °C 18,8 °C 8,9 km/h (2 Bft)
18.07.2025 10:00 21,8 °C 20,9 °C 54 % 81 % 1014,1 hPa 0,0 l/m² 5,4 km/h (2 Bft) N-NW 1,00 h 619 W/m² 17,5 °C 20,7 °C 9,6 km/h (2 Bft)
18.07.2025 11:00 21,8 °C 22,4 °C 54 % 73 % 1013,9 hPa 0,0 l/m² 5,4 km/h (2 Bft) W 1,00 h 657 W/m² 17,5 °C 22,3 °C 10,2 km/h (2 Bft)
18.07.2025 12:00 21,8 °C 23,1 °C 54 % 70 % 1013,9 hPa 0,0 l/m² 4,1 km/h (1 Bft) W-SW 0,98 h 452 W/m² 17,3 °C 23,1 °C 9,0 km/h (2 Bft)
18.07.2025 13:00 21,8 °C 24,2 °C 54 % 66 % 1013,6 hPa 0,0 l/m² 4,6 km/h (1 Bft) W-SW 1,02 h 635 W/m² 17,4 °C 24,2 °C 10,4 km/h (2 Bft)
18.07.2025 14:00 21,8 °C 24,2 °C 54 % 65 % 1013,3 hPa 0,0 l/m² 3,4 km/h (1 Bft) W-NW 0,98 h 324 W/m² 17,2 °C 24,2 °C 7,4 km/h (2 Bft)
18.07.2025 15:00 21,9 °C 23,9 °C 54 % 66 % 1013,2 hPa 0,0 l/m² 4,0 km/h (1 Bft) NW 1,00 h 288 W/m² 17,0 °C 23,9 °C 7,6 km/h (2 Bft)
18.07.2025 16:00 21,9 °C 25,0 °C 54 % 61 % 1013,1 hPa 0,0 l/m² 3,1 km/h (1 Bft) W 1,02 h 520 W/m² 17,0 °C 25,0 °C 7,1 km/h (2 Bft)
18.07.2025 17:00 22,1 °C 24,7 °C 56 % 66 % 1013,0 hPa 0,0 l/m² 9,3 km/h (2 Bft) N-NW 0,98 h 357 W/m² 17,9 °C 23,8 °C 15,7 km/h (3 Bft)
18.07.2025 18:00 22,2 °C 23,7 °C 57 % 69 % 1012,9 hPa 0,0 l/m² 7,3 km/h (2 Bft) N-NW 1,00 h 154 W/m² 17,7 °C 23,3 °C 12,1 km/h (2 Bft)
18.07.2025 19:00 22,3 °C 23,2 °C 59 % 69 % 1012,8 hPa 0,0 l/m² 4,7 km/h (1 Bft) N-NW 0,50 h 66 W/m² 17,1 °C 23,1 °C 7,5 km/h (2 Bft)
18.07.2025 20:00 22,2 °C 22,5 °C 59 % 70 % 1012,8 hPa 0,0 l/m² 2,8 km/h (1 Bft) NW 0,20 h 34 W/m² 16,7 °C 22,5 °C 4,8 km/h (1 Bft)
18.07.2025 21:00 22,3 °C 20,7 °C 59 % 78 % 1013,1 hPa 0,0 l/m² 0,8 km/h (0 Bft) NW 0,00 h 7 W/m² 16,6 °C 20,7 °C 1,5 km/h (1 Bft)
18.07.2025 22:00 22,5 °C 20,0 °C 60 % 82 % 1013,5 hPa 0,0 l/m² 0,9 km/h (0 Bft) N-NW 0,00 h 0 W/m² 16,8 °C 20,0 °C 2,0 km/h (1 Bft)
18.07.2025 23:00 22,3 °C 19,4 °C 59 % 85 % 1013,5 hPa 0,0 l/m² 0,9 km/h (0 Bft) W-NW 0,00 h 0 W/m² 16,8 °C 19,4 °C 1,8 km/h (1 Bft)
19.07.2025 00:00 22,3 °C 18,9 °C 59 % 87 % 1013,2 hPa 0,0 l/m² 0,2 km/h (0 Bft) W-NW 0,00 h 0 W/m² 16,7 °C 18,9 °C 0,6 km/h (0 Bft)
19.07.2025 01:00 22,3 °C 17,4 °C 59 % 91 % 1013,1 hPa 0,0 l/m² 0,1 km/h (0 Bft) W-NW 0,00 h 0 W/m² 15,9 °C 17,4 °C 0,2 km/h (0 Bft)
19.07.2025 02:00 22,3 °C 15,9 °C 58 % 93 % 1012,9 hPa 0,0 l/m² 0,0 km/h (0 Bft) W-NW 0,00 h 0 W/m² 14,8 °C 15,9 °C 0,0 km/h (0 Bft)
19.07.2025 03:00 22,2 °C 14,9 °C 58 % 94 % 1012,7 hPa 0,0 l/m² 0,0 km/h (0 Bft) W-NW 0,00 h 0 W/m² 14,0 °C 14,9 °C 0,0 km/h (0 Bft)
19.07.2025 04:00 22,2 °C 15,3 °C 58 % 94 % 1012,5 hPa 0,0 l/m² 0,0 km/h (0 Bft) W 0,00 h 0 W/m² 14,3 °C 15,3 °C 0,0 km/h (0 Bft)
19.07.2025 05:00 22,2 °C 14,8 °C 58 % 94 % 1012,4 hPa 0,0 l/m² 0,0 km/h (0 Bft) W 0,00 h 12 W/m² 13,8 °C 14,8 °C 0,0 km/h (0 Bft)
19.07.2025 06:00 22,2 °C 15,0 °C 58 % 94 % 1012,5 hPa 0,0 l/m² 0,0 km/h (0 Bft) W 0,68 h 74 W/m² 14,0 °C 15,0 °C 0,0 km/h (0 Bft)
19.07.2025 07:00 22,1 °C 17,1 °C 58 % 95 % 1012,6 hPa 0,0 l/m² 0,1 km/h (0 Bft) W 1,00 h 189 W/m² 16,2 °C 17,1 °C 0,3 km/h (0 Bft)
19.07.2025 08:00 22,2 °C 20,5 °C 59 % 86 % 1012,4 hPa 0,0 l/m² 2,3 km/h (1 Bft) O 1,00 h 313 W/m² 18,1 °C 20,5 °C 3,9 km/h (1 Bft)
19.07.2025 09:00 22,4 °C 23,6 °C 60 % 72 % 1012,2 hPa 0,0 l/m² 3,6 km/h (1 Bft) O 1,00 h 559 W/m² 18,2 °C 23,5 °C 5,8 km/h (2 Bft)
19.07.2025 10:00 22,4 °C 24,7 °C 60 % 66 % 1011,8 hPa 0,0 l/m² 4,2 km/h (1 Bft) SO 1,00 h 487 W/m² 17,8 °C 24,7 °C 6,7 km/h (2 Bft)
19.07.2025 11:00 22,4 °C 25,6 °C 60 % 63 % 1011,3 hPa 0,0 l/m² 4,8 km/h (1 Bft) O-NO 0,98 h 690 W/m² 17,9 °C 25,5 °C 8,2 km/h (2 Bft)
19.07.2025 12:00 22,6 °C 27,7 °C 61 % 55 % 1010,8 hPa 0,0 l/m² 7,3 km/h (2 Bft) NO 1,00 h 820 W/m² 17,9 °C 27,5 °C 12,5 km/h (2 Bft)
19.07.2025 13:00 22,8 °C 28,7 °C 62 % 52 % 1010,3 hPa 0,0 l/m² 7,9 km/h (2 Bft) O 1,02 h 979 W/m² 17,8 °C 28,4 °C 11,7 km/h (2 Bft)
19.07.2025 14:00 22,8 °C 29,1 °C 61 % 50 % 1009,8 hPa 0,0 l/m² 8,2 km/h (2 Bft) O-SO 1,00 h 886 W/m² 17,6 °C 28,9 °C 12,7 km/h (3 Bft)
19.07.2025 15:00 22,8 °C 28,7 °C 61 % 49 % 1009,3 hPa 0,0 l/m² 6,0 km/h (2 Bft) O 1,00 h 455 W/m² 17,0 °C 28,6 °C 9,4 km/h (2 Bft)
19.07.2025 16:00 22,8 °C 28,8 °C 61 % 50 % 1009,0 hPa 0,0 l/m² 6,3 km/h (2 Bft) N-NO 1,00 h 510 W/m² 17,4 °C 28,7 °C 10,1 km/h (2 Bft)
19.07.2025 17:00 22,8 °C 28,7 °C 60 % 49 % 1008,6 hPa 0,0 l/m² 6,9 km/h (2 Bft) NO 1,00 h 402 W/m² 16,8 °C 28,6 °C 11,0 km/h (2 Bft)
19.07.2025 18:00 22,8 °C 28,7 °C 60 % 48 % 1008,3 hPa 0,0 l/m² 7,3 km/h (2 Bft) O 0,93 h 80 W/m² 16,4 °C 28,5 °C 11,0 km/h (2 Bft)
19.07.2025 19:00 22,8 °C 27,5 °C 60 % 50 % 1008,2 hPa 0,0 l/m² 7,3 km/h (2 Bft) O 0,00 h 38 W/m² 16,1 °C 27,3 °C 11,4 km/h (2 Bft)
19.07.2025 20:00 22,8 °C 25,5 °C 60 % 55 % 1008,2 hPa 0,0 l/m² 6,1 km/h (2 Bft) NO 0,00 h 25 W/m² 15,9 °C 25,5 °C 9,7 km/h (2 Bft)
19.07.2025 21:00 22,8 °C 22,0 °C 60 % 66 % 1008,5 hPa 0,0 l/m² 4,3 km/h (1 Bft) O 0,00 h 5 W/m² 15,4 °C 22,0 °C 5,8 km/h (2 Bft)
19.07.2025 22:00 22,8 °C 20,2 °C 60 % 74 % 1008,7 hPa 0,0 l/m² 2,7 km/h (1 Bft) O 0,00 h 0 W/m² 15,4 °C 20,2 °C 3,9 km/h (1 Bft)
19.07.2025 23:00 22,8 °C 19,0 °C 60 % 79 % 1008,6 hPa 0,0 l/m² 3,1 km/h (1 Bft) O 0,00 h 0 W/m² 15,2 °C 19,0 °C 4,4 km/h (1 Bft)
20.07.2025 00:00 22,8 °C 17,8 °C 60 % 83 % 1008,5 hPa 0,0 l/m² 1,8 km/h (1 Bft) O 0,00 h 0 W/m² 14,9 °C 17,8 °C 3,0 km/h (1 Bft)
20.07.2025 01:00 22,8 °C 16,6 °C 60 % 89 % 1008,2 hPa 0,0 l/m² 0,1 km/h (0 Bft) O 0,00 h 0 W/m² 14,7 °C 16,6 °C 0,4 km/h (0 Bft)
20.07.2025 02:00 22,8 °C 15,7 °C 59 % 90 % 1007,8 hPa 0,0 l/m² 0,2 km/h (0 Bft) O 0,00 h 0 W/m² 14,0 °C 15,7 °C 0,5 km/h (0 Bft)
20.07.2025 03:00 22,8 °C 15,4 °C 59 % 92 % 1007,5 hPa 0,0 l/m² 1,2 km/h (1 Bft) O 0,00 h 0 W/m² 14,1 °C 15,4 °C 2,0 km/h (1 Bft)
20.07.2025 04:00 22,7 °C 15,1 °C 59 % 91 % 1007,0 hPa 0,0 l/m² 0,5 km/h (0 Bft) O 0,00 h 0 W/m² 13,6 °C 15,1 °C 1,2 km/h (1 Bft)
20.07.2025 05:00 22,7 °C 15,0 °C 59 % 92 % 1007,1 hPa 0,0 l/m² 1,6 km/h (1 Bft) O 0,00 h 16 W/m² 13,7 °C 15,0 °C 2,6 km/h (1 Bft)
20.07.2025 06:00 22,7 °C 16,3 °C 59 % 92 % 1007,2 hPa 0,0 l/m² 0,1 km/h (0 Bft) SO 0,75 h 74 W/m² 15,0 °C 16,3 °C 0,3 km/h (0 Bft)
20.07.2025 07:00 22,7 °C 18,6 °C 59 % 84 % 1007,1 hPa 0,0 l/m² 0,8 km/h (0 Bft) SO 1,00 h 110 W/m² 15,9 °C 18,6 °C 1,5 km/h (1 Bft)
20.07.2025 08:00 22,7 °C 20,9 °C 59 % 77 % 1007,1 hPa 0,0 l/m² 3,4 km/h (1 Bft) SO 1,00 h 195 W/m² 16,7 °C 20,8 °C 4,9 km/h (1 Bft)
20.07.2025 09:00 22,7 °C 23,2 °C 61 % 71 % 1007,0 hPa 0,0 l/m² 5,9 km/h (2 Bft) S-SW 1,00 h 202 W/m² 17,5 °C 23,1 °C 8,2 km/h (2 Bft)
20.07.2025 10:00 22,8 °C 26,0 °C 61 % 64 % 1006,9 hPa 0,0 l/m² 8,0 km/h (2 Bft) S-SW 1,00 h 554 W/m² 18,5 °C 25,7 °C 11,4 km/h (2 Bft)
20.07.2025 11:00 23,0 °C 28,9 °C 61 % 53 % 1006,7 hPa 0,0 l/m² 7,9 km/h (2 Bft) S-SW 1,00 h 806 W/m² 18,3 °C 28,7 °C 12,7 km/h (3 Bft)
20.07.2025 12:00 23,1 °C 29,9 °C 61 % 49 % 1006,2 hPa 0,0 l/m² 8,5 km/h (2 Bft) S-SW 0,98 h 750 W/m² 17,9 °C 29,7 °C 12,9 km/h (3 Bft)
20.07.2025 13:00 23,1 °C 30,3 °C 61 % 47 % 1005,9 hPa 0,0 l/m² 10,0 km/h (2 Bft) S-SW 1,02 h 575 W/m² 17,8 °C 30,1 °C 15,2 km/h (3 Bft)
20.07.2025 14:00 23,1 °C 30,6 °C 61 % 45 % 1005,6 hPa 0,0 l/m² 7,6 km/h (2 Bft) S 0,98 h 459 W/m² 17,3 °C 30,5 °C 12,2 km/h (2 Bft)
20.07.2025 15:00 23,2 °C 32,2 °C 61 % 41 % 1005,2 hPa 0,0 l/m² 5,4 km/h (2 Bft) S 1,00 h 814 W/m² 17,3 °C 32,2 °C 9,9 km/h (2 Bft)
20.07.2025 16:00 23,4 °C 32,1 °C 60 % 42 % 1004,7 hPa 0,0 l/m² 5,7 km/h (2 Bft) O 1,00 h 577 W/m² 17,5 °C 32,0 °C 9,5 km/h (2 Bft)
20.07.2025 17:00 23,3 °C 31,4 °C 60 % 43 % 1004,2 hPa 0,0 l/m² 6,7 km/h (2 Bft) O-SO 1,02 h 318 W/m² 17,3 °C 31,4 °C 10,5 km/h (2 Bft)
20.07.2025 18:00 23,4 °C 31,3 °C 60 % 44 % 1003,8 hPa 0,0 l/m² 7,0 km/h (2 Bft) O 1,00 h 110 W/m² 17,4 °C 31,2 °C 11,1 km/h (2 Bft)
20.07.2025 19:00 23,4 °C 29,6 °C 60 % 50 % 1003,6 hPa 0,0 l/m² 4,0 km/h (1 Bft) O 0,85 h 79 W/m² 17,9 °C 29,6 °C 6,0 km/h (2 Bft)
20.07.2025 20:00 23,5 °C 27,1 °C 62 % 58 % 1003,6 hPa 0,0 l/m² 3,9 km/h (1 Bft) O-NO 0,03 h 23 W/m² 18,0 °C 27,1 °C 5,8 km/h (2 Bft)
20.07.2025 21:00 23,6 °C 24,8 °C 62 % 63 % 1003,7 hPa 0,0 l/m² 4,6 km/h (1 Bft) O-NO 0,00 h 5 W/m² 17,4 °C 24,8 °C 6,3 km/h (2 Bft)
20.07.2025 22:00 23,6 °C 22,8 °C 62 % 71 % 1003,6 hPa 0,0 l/m² 5,0 km/h (1 Bft) O-NO 0,00 h 0 W/m² 17,3 °C 22,7 °C 6,5 km/h (2 Bft)
20.07.2025 23:00 23,6 °C 22,5 °C 62 % 76 % 1004,6 hPa 0,0 l/m² 12,5 km/h (2 Bft) W-SW 0,00 h 0 W/m² 18,1 °C 21,2 °C 18,7 km/h (3 Bft)
Min-Datum _ 18.07.25 16.07.25 14.07.25 14.07.25 20.07.25 - 20.07.25 - - - 16.07.25 16.07.25 20.07.25
_ Min-Zeit 10:00 05:08 18:00 14:19 22:35 - 16:30 - - - 04:28 05:08 16:30
Minimum _ 21,7 °C 11,0 °C 53 % 34 % 1003,4 hPa - 0,0 km/h (0 Bft) - - - 9,7 °C 11,0 °C 0,0 km/h (0 Bft)
Max-Datum _ 20.07.25 20.07.25 20.07.25 14.07.25 15.07.25 15.07.25 14.07.25 - 20.07.25 18.07.25 20.07.25 20.07.25 14.07.25
_ Max-Zeit 22:00 16:21 23:00 07:01 11:25 10:05 15:26 - 12:09 13:01 11:05 16:21 15:03
Maximum _ 23,7 °C 33,2 °C 62 % 96 % 1016,9 hPa 7,0 l/m² 33,4 km/h
SW (5 Bft)
- 0,15 h 1155 W/m² 19,6 °C 33,2 °C 46,7 km/h
SW (6 Bft)
Durchschnitt _ 22,3 °C 20,4 °C 56 % 76 % 1012,1 hPa #22,4 l/m² 5,8 km/h (2 Bft) W #88:42 h 203 W/m² 15,4 °C 19,9 °C 9,2 km/h (2 Bft)
© 2009 Mathias Hoßbach